sensor_id;sensor_type;location;lat;lon;timestamp;temperature;humidity
16032;DHT22;8120;48.308;8.914;2023-05-27T00:01:25;10.70;81.90
16032;DHT22;8120;48.308;8.914;2023-05-27T00:03:53;10.70;81.80
16032;DHT22;8120;48.308;8.914;2023-05-27T00:06:23;10.60;82.00
16032;DHT22;8120;48.308;8.914;2023-05-27T00:08:51;10.60;82.30
16032;DHT22;8120;48.308;8.914;2023-05-27T00:11:18;10.50;82.30
16032;DHT22;8120;48.308;8.914;2023-05-27T00:13:46;10.50;82.50
16032;DHT22;8120;48.308;8.914;2023-05-27T00:16:14;10.50;82.60
16032;DHT22;8120;48.308;8.914;2023-05-27T00:18:43;10.40;82.80
16032;DHT22;8120;48.308;8.914;2023-05-27T00:21:11;10.40;83.10
16032;DHT22;8120;48.308;8.914;2023-05-27T00:23:46;10.40;83.10
16032;DHT22;8120;48.308;8.914;2023-05-27T00:26:14;10.30;83.40
16032;DHT22;8120;48.308;8.914;2023-05-27T00:28:42;10.30;83.70
16032;DHT22;8120;48.308;8.914;2023-05-27T00:31:10;10.20;83.30
16032;DHT22;8120;48.308;8.914;2023-05-27T00:33:37;10.10;84.10
16032;DHT22;8120;48.308;8.914;2023-05-27T00:36:06;10.00;83.50
16032;DHT22;8120;48.308;8.914;2023-05-27T00:38:34;10.00;84.10
16032;DHT22;8120;48.308;8.914;2023-05-27T00:41:04;9.90;85.00
16032;DHT22;8120;48.308;8.914;2023-05-27T00:43:32;9.90;85.30
16032;DHT22;8120;48.308;8.914;2023-05-27T00:46:00;9.90;85.50
16032;DHT22;8120;48.308;8.914;2023-05-27T00:48:28;9.90;84.50
16032;DHT22;8120;48.308;8.914;2023-05-27T00:50:57;9.90;85.60
16032;DHT22;8120;48.308;8.914;2023-05-27T00:53:25;9.80;85.40
16032;DHT22;8120;48.308;8.914;2023-05-27T00:55:53;9.80;85.40
16032;DHT22;8120;48.308;8.914;2023-05-27T00:58:24;9.80;85.40
16032;DHT22;8120;48.308;8.914;2023-05-27T01:00:53;9.80;85.80
16032;DHT22;8120;48.308;8.914;2023-05-27T01:03:23;9.80;85.70
16032;DHT22;8120;48.308;8.914;2023-05-27T01:05:56;9.80;85.40
16032;DHT22;8120;48.308;8.914;2023-05-27T01:08:31;9.80;84.60
16032;DHT22;8120;48.308;8.914;2023-05-27T01:10:59;9.80;85.20
16032;DHT22;8120;48.308;8.914;2023-05-27T01:13:33;9.80;85.50
16032;DHT22;8120;48.308;8.914;2023-05-27T01:16:08;9.70;85.60
16032;DHT22;8120;48.308;8.914;2023-05-27T01:18:37;9.70;85.30
16032;DHT22;8120;48.308;8.914;2023-05-27T01:21:10;9.70;85.80
16032;DHT22;8120;48.308;8.914;2023-05-27T01:23:42;9.70;85.80
16032;DHT22;8120;48.308;8.914;2023-05-27T01:26:11;9.70;85.50
16032;DHT22;8120;48.308;8.914;2023-05-27T01:28:39;9.70;86.00
16032;DHT22;8120;48.308;8.914;2023-05-27T01:31:12;9.70;85.30
16032;DHT22;8120;48.308;8.914;2023-05-27T01:33:42;9.60;85.80
16032;DHT22;8120;48.308;8.914;2023-05-27T01:36:17;9.60;85.70
16032;DHT22;8120;48.308;8.914;2023-05-27T01:38:48;9.50;85.60
16032;DHT22;8120;48.308;8.914;2023-05-27T01:41:17;9.40;86.00
16032;DHT22;8120;48.308;8.914;2023-05-27T01:43:46;9.40;85.60
16032;DHT22;8120;48.308;8.914;2023-05-27T01:46:15;9.40;86.30
16032;DHT22;8120;48.308;8.914;2023-05-27T01:48:43;9.30;86.10
16032;DHT22;8120;48.308;8.914;2023-05-27T01:51:11;9.30;86.10
16032;DHT22;8120;48.308;8.914;2023-05-27T01:53:39;9.20;86.60
16032;DHT22;8120;48.308;8.914;2023-05-27T01:56:08;9.10;87.10
16032;DHT22;8120;48.308;8.914;2023-05-27T01:58:36;9.10;86.90
16032;DHT22;8120;48.308;8.914;2023-05-27T02:01:04;9.00;87.00
16032;DHT22;8120;48.308;8.914;2023-05-27T02:03:32;9.00;86.80
16032;DHT22;8120;48.308;8.914;2023-05-27T02:06:00;8.90;87.10
16032;DHT22;8120;48.308;8.914;2023-05-27T02:08:28;9.00;87.70
16032;DHT22;8120;48.308;8.914;2023-05-27T02:10:56;8.90;87.20
16032;DHT22;8120;48.308;8.914;2023-05-27T02:13:25;8.90;87.90
16032;DHT22;8120;48.308;8.914;2023-05-27T02:15:53;8.80;88.30
16032;DHT22;8120;48.308;8.914;2023-05-27T02:18:21;8.80;88.40
16032;DHT22;8120;48.308;8.914;2023-05-27T02:20:49;8.70;88.60
16032;DHT22;8120;48.308;8.914;2023-05-27T02:23:17;8.70;88.70
16032;DHT22;8120;48.308;8.914;2023-05-27T02:25:45;8.60;89.10
16032;DHT22;8120;48.308;8.914;2023-05-27T02:28:15;8.60;88.50
16032;DHT22;8120;48.308;8.914;2023-05-27T02:30:44;8.50;89.10
16032;DHT22;8120;48.308;8.914;2023-05-27T02:33:12;8.50;89.20
16032;DHT22;8120;48.308;8.914;2023-05-27T02:35:40;8.50;89.00
16032;DHT22;8120;48.308;8.914;2023-05-27T02:38:08;8.50;89.30
16032;DHT22;8120;48.308;8.914;2023-05-27T02:40:36;8.50;90.00
16032;DHT22;8120;48.308;8.914;2023-05-27T02:43:04;8.40;89.30
16032;DHT22;8120;48.308;8.914;2023-05-27T02:45:31;8.30;89.00
16032;DHT22;8120;48.308;8.914;2023-05-27T02:48:01;8.20;89.20
16032;DHT22;8120;48.308;8.914;2023-05-27T02:50:29;8.20;89.60
16032;DHT22;8120;48.308;8.914;2023-05-27T02:52:57;8.20;89.70
16032;DHT22;8120;48.308;8.914;2023-05-27T02:55:25;8.10;89.60
16032;DHT22;8120;48.308;8.914;2023-05-27T02:57:52;8.10;89.80
16032;DHT22;8120;48.308;8.914;2023-05-27T03:00:20;8.00;89.80
16032;DHT22;8120;48.308;8.914;2023-05-27T03:02:49;8.00;90.00
16032;DHT22;8120;48.308;8.914;2023-05-27T03:05:18;8.00;90.00
16032;DHT22;8120;48.308;8.914;2023-05-27T03:07:46;8.00;89.70
16032;DHT22;8120;48.308;8.914;2023-05-27T03:10:14;7.90;90.00
16032;DHT22;8120;48.308;8.914;2023-05-27T03:12:42;7.90;90.60
16032;DHT22;8120;48.308;8.914;2023-05-27T03:15:10;7.90;90.60
16032;DHT22;8120;48.308;8.914;2023-05-27T03:17:38;7.90;90.20
16032;DHT22;8120;48.308;8.914;2023-05-27T03:20:06;7.90;90.30
16032;DHT22;8120;48.308;8.914;2023-05-27T03:22:36;7.80;90.20
16032;DHT22;8120;48.308;8.914;2023-05-27T03:25:05;7.80;90.00
16032;DHT22;8120;48.308;8.914;2023-05-27T03:27:34;7.80;90.80
16032;DHT22;8120;48.308;8.914;2023-05-27T03:30:03;7.70;90.10
16032;DHT22;8120;48.308;8.914;2023-05-27T03:32:31;7.70;90.10
16032;DHT22;8120;48.308;8.914;2023-05-27T03:34:59;7.60;90.30
16032;DHT22;8120;48.308;8.914;2023-05-27T03:37:27;7.70;90.50
16032;DHT22;8120;48.308;8.914;2023-05-27T03:39:56;7.70;90.80
16032;DHT22;8120;48.308;8.914;2023-05-27T03:42:25;7.70;90.70
16032;DHT22;8120;48.308;8.914;2023-05-27T03:44:52;7.70;90.70
16032;DHT22;8120;48.308;8.914;2023-05-27T03:47:20;7.70;90.80
16032;DHT22;8120;48.308;8.914;2023-05-27T03:49:48;7.70;90.50
16032;DHT22;8120;48.308;8.914;2023-05-27T03:52:16;7.70;90.70
16032;DHT22;8120;48.308;8.914;2023-05-27T03:54:44;7.80;90.50
16032;DHT22;8120;48.308;8.914;2023-05-27T03:57:13;7.90;90.30
16032;DHT22;8120;48.308;8.914;2023-05-27T03:59:42;8.10;89.10
16032;DHT22;8120;48.308;8.914;2023-05-27T04:02:10;8.30;88.20
16032;DHT22;8120;48.308;8.914;2023-05-27T04:04:38;8.60;86.90
16032;DHT22;8120;48.308;8.914;2023-05-27T04:07:06;8.90;85.60
16032;DHT22;8120;48.308;8.914;2023-05-27T04:09:34;9.00;84.30
16032;DHT22;8120;48.308;8.914;2023-05-27T04:12:02;9.20;83.80
16032;DHT22;8120;48.308;8.914;2023-05-27T04:14:31;9.40;83.00
16032;DHT22;8120;48.308;8.914;2023-05-27T04:16:59;9.70;81.70
16032;DHT22;8120;48.308;8.914;2023-05-27T04:19:28;10.00;80.50
16032;DHT22;8120;48.308;8.914;2023-05-27T04:21:59;10.30;78.30
16032;DHT22;8120;48.308;8.914;2023-05-27T04:24:27;10.60;76.80
16032;DHT22;8120;48.308;8.914;2023-05-27T04:26:55;10.60;78.10
16032;DHT22;8120;48.308;8.914;2023-05-27T04:29:23;10.90;75.80
16032;DHT22;8120;48.308;8.914;2023-05-27T04:31:53;10.90;75.70
16032;DHT22;8120;48.308;8.914;2023-05-27T04:34:23;11.10;74.80
16032;DHT22;8120;48.308;8.914;2023-05-27T04:36:51;11.30;74.30
16032;DHT22;8120;48.308;8.914;2023-05-27T04:39:19;11.60;74.30
16032;DHT22;8120;48.308;8.914;2023-05-27T04:41:47;12.10;72.10
16032;DHT22;8120;48.308;8.914;2023-05-27T04:44:15;12.30;72.00
16032;DHT22;8120;48.308;8.914;2023-05-27T04:46:43;12.30;71.50
16032;DHT22;8120;48.308;8.914;2023-05-27T04:49:13;12.10;72.20
16032;DHT22;8120;48.308;8.914;2023-05-27T04:51:41;12.10;71.20
16032;DHT22;8120;48.308;8.914;2023-05-27T04:54:09;12.20;71.50
16032;DHT22;8120;48.308;8.914;2023-05-27T04:56:36;12.30;72.90
16032;DHT22;8120;48.308;8.914;2023-05-27T04:59:04;13.20;68.60
16032;DHT22;8120;48.308;8.914;2023-05-27T05:01:32;13.70;66.60
16032;DHT22;8120;48.308;8.914;2023-05-27T05:04:17;14.40;64.40
16032;DHT22;8120;48.308;8.914;2023-05-27T05:06:45;14.20;64.90
16032;DHT22;8120;48.308;8.914;2023-05-27T05:09:13;14.40;64.40
16032;DHT22;8120;48.308;8.914;2023-05-27T05:11:41;14.80;61.00
16032;DHT22;8120;48.308;8.914;2023-05-27T05:14:09;14.40;61.20
16032;DHT22;8120;48.308;8.914;2023-05-27T05:16:37;14.40;61.10
16032;DHT22;8120;48.308;8.914;2023-05-27T05:19:05;14.40;62.10
16032;DHT22;8120;48.308;8.914;2023-05-27T05:21:34;14.60;61.50
16032;DHT22;8120;48.308;8.914;2023-05-27T05:24:03;14.20;62.40
16032;DHT22;8120;48.308;8.914;2023-05-27T05:26:31;14.40;61.50
16032;DHT22;8120;48.308;8.914;2023-05-27T05:28:59;14.30;61.50
16032;DHT22;8120;48.308;8.914;2023-05-27T05:31:27;14.30;61.00
16032;DHT22;8120;48.308;8.914;2023-05-27T05:33:55;13.90;62.90
16032;DHT22;8120;48.308;8.914;2023-05-27T05:36:23;14.10;62.30
16032;DHT22;8120;48.308;8.914;2023-05-27T05:38:52;14.20;61.40
16032;DHT22;8120;48.308;8.914;2023-05-27T05:41:20;14.30;62.50
16032;DHT22;8120;48.308;8.914;2023-05-27T05:43:48;15.00;60.30
16032;DHT22;8120;48.308;8.914;2023-05-27T05:46:15;15.30;58.90
16032;DHT22;8120;48.308;8.914;2023-05-27T05:48:43;15.60;59.60
16032;DHT22;8120;48.308;8.914;2023-05-27T05:51:12;15.70;57.50
16032;DHT22;8120;48.308;8.914;2023-05-27T05:53:39;15.70;57.80
16032;DHT22;8120;48.308;8.914;2023-05-27T05:56:09;15.40;58.90
16032;DHT22;8120;48.308;8.914;2023-05-27T05:58:37;15.70;58.10
16032;DHT22;8120;48.308;8.914;2023-05-27T06:01:05;15.50;57.80
16032;DHT22;8120;48.308;8.914;2023-05-27T06:03:32;15.40;58.10
16032;DHT22;8120;48.308;8.914;2023-05-27T06:06:00;15.30;59.20
16032;DHT22;8120;48.308;8.914;2023-05-27T06:08:29;15.20;59.20
16032;DHT22;8120;48.308;8.914;2023-05-27T06:10:57;15.20;59.50
16032;DHT22;8120;48.308;8.914;2023-05-27T06:13:26;15.00;60.10
16032;DHT22;8120;48.308;8.914;2023-05-27T06:15:54;15.00;59.80
16032;DHT22;8120;48.308;8.914;2023-05-27T06:18:22;15.00;60.20
16032;DHT22;8120;48.308;8.914;2023-05-27T06:20:50;15.20;58.70
16032;DHT22;8120;48.308;8.914;2023-05-27T06:23:18;15.10;59.90
16032;DHT22;8120;48.308;8.914;2023-05-27T06:25:47;14.90;60.70
16032;DHT22;8120;48.308;8.914;2023-05-27T06:28:14;15.20;59.60
16032;DHT22;8120;48.308;8.914;2023-05-27T06:30:44;15.20;58.80
16032;DHT22;8120;48.308;8.914;2023-05-27T06:33:11;14.80;59.40
16032;DHT22;8120;48.308;8.914;2023-05-27T06:35:39;15.10;60.50
16032;DHT22;8120;48.308;8.914;2023-05-27T06:38:07;15.50;58.60
16032;DHT22;8120;48.308;8.914;2023-05-27T06:40:35;15.30;59.00
16032;DHT22;8120;48.308;8.914;2023-05-27T06:43:03;15.10;59.30
16032;DHT22;8120;48.308;8.914;2023-05-27T06:45:31;15.40;60.30
16032;DHT22;8120;48.308;8.914;2023-05-27T06:48:00;15.90;57.90
16032;DHT22;8120;48.308;8.914;2023-05-27T06:50:28;15.70;57.70
16032;DHT22;8120;48.308;8.914;2023-05-27T06:52:56;15.90;58.30
16032;DHT22;8120;48.308;8.914;2023-05-27T06:55:24;16.30;56.40
16032;DHT22;8120;48.308;8.914;2023-05-27T06:57:52;15.90;57.10
16032;DHT22;8120;48.308;8.914;2023-05-27T07:00:20;15.60;57.90
16032;DHT22;8120;48.308;8.914;2023-05-27T07:02:48;15.40;59.10
16032;DHT22;8120;48.308;8.914;2023-05-27T07:05:17;15.70;58.30
16032;DHT22;8120;48.308;8.914;2023-05-27T07:07:45;16.10;57.30
16032;DHT22;8120;48.308;8.914;2023-05-27T07:10:13;16.00;57.30
16032;DHT22;8120;48.308;8.914;2023-05-27T07:12:41;16.10;57.70
16032;DHT22;8120;48.308;8.914;2023-05-27T07:15:09;15.90;57.10
16032;DHT22;8120;48.308;8.914;2023-05-27T07:17:37;15.90;58.50
16032;DHT22;8120;48.308;8.914;2023-05-27T07:20:06;16.10;58.00
16032;DHT22;8120;48.308;8.914;2023-05-27T07:22:36;16.10;57.20
16032;DHT22;8120;48.308;8.914;2023-05-27T07:25:04;16.10;58.60
16032;DHT22;8120;48.308;8.914;2023-05-27T07:27:32;16.80;55.30
16032;DHT22;8120;48.308;8.914;2023-05-27T07:30:00;17.40;54.80
16032;DHT22;8120;48.308;8.914;2023-05-27T07:32:28;17.80;54.60
16032;DHT22;8120;48.308;8.914;2023-05-27T07:34:56;18.10;52.60
16032;DHT22;8120;48.308;8.914;2023-05-27T07:37:24;17.50;53.80
16032;DHT22;8120;48.308;8.914;2023-05-27T07:39:54;17.40;54.50
16032;DHT22;8120;48.308;8.914;2023-05-27T07:42:22;17.40;54.70
16032;DHT22;8120;48.308;8.914;2023-05-27T07:44:50;17.50;54.50
16032;DHT22;8120;48.308;8.914;2023-05-27T07:47:18;17.90;53.20
16032;DHT22;8120;48.308;8.914;2023-05-27T07:49:46;18.00;53.50
16032;DHT22;8120;48.308;8.914;2023-05-27T07:52:14;17.90;53.20
16032;DHT22;8120;48.308;8.914;2023-05-27T07:54:42;17.90;54.40
16032;DHT22;8120;48.308;8.914;2023-05-27T07:57:22;18.10;54.40
16032;DHT22;8120;48.308;8.914;2023-05-27T07:59:50;18.10;54.30
16032;DHT22;8120;48.308;8.914;2023-05-27T08:02:18;18.40;53.80
16032;DHT22;8120;48.308;8.914;2023-05-27T08:04:48;18.70;53.30
16032;DHT22;8120;48.308;8.914;2023-05-27T08:07:16;18.50;53.00
16032;DHT22;8120;48.308;8.914;2023-05-27T08:09:44;18.40;53.60
16032;DHT22;8120;48.308;8.914;2023-05-27T08:12:12;18.70;53.30
16032;DHT22;8120;48.308;8.914;2023-05-27T08:14:41;18.80;53.70
16032;DHT22;8120;48.308;8.914;2023-05-27T08:17:09;19.10;52.90
16032;DHT22;8120;48.308;8.914;2023-05-27T08:19:37;19.00;52.70
16032;DHT22;8120;48.308;8.914;2023-05-27T08:22:05;19.40;52.80
16032;DHT22;8120;48.308;8.914;2023-05-27T08:24:35;19.20;52.20
16032;DHT22;8120;48.308;8.914;2023-05-27T08:27:03;18.70;53.80
16032;DHT22;8120;48.308;8.914;2023-05-27T08:29:32;18.90;54.00
16032;DHT22;8120;48.308;8.914;2023-05-27T08:32:01;19.00;54.20
16032;DHT22;8120;48.308;8.914;2023-05-27T08:34:29;18.80;53.80
16032;DHT22;8120;48.308;8.914;2023-05-27T08:36:57;19.10;53.00
16032;DHT22;8120;48.308;8.914;2023-05-27T08:39:26;18.80;53.40
16032;DHT22;8120;48.308;8.914;2023-05-27T08:41:54;19.00;54.70
16032;DHT22;8120;48.308;8.914;2023-05-27T08:44:23;19.40;52.90
16032;DHT22;8120;48.308;8.914;2023-05-27T08:46:51;19.10;53.50
16032;DHT22;8120;48.308;8.914;2023-05-27T08:49:20;19.00;54.30
16032;DHT22;8120;48.308;8.914;2023-05-27T08:51:49;19.20;53.90
16032;DHT22;8120;48.308;8.914;2023-05-27T08:54:20;19.20;53.40
16032;DHT22;8120;48.308;8.914;2023-05-27T08:56:49;18.70;54.00
16032;DHT22;8120;48.308;8.914;2023-05-27T08:59:20;18.60;55.10
16032;DHT22;8120;48.308;8.914;2023-05-27T09:01:48;18.90;53.90
16032;DHT22;8120;48.308;8.914;2023-05-27T09:04:17;19.10;53.80
16032;DHT22;8120;48.308;8.914;2023-05-27T09:06:46;18.90;54.30
16032;DHT22;8120;48.308;8.914;2023-05-27T09:09:14;19.50;53.20
16032;DHT22;8120;48.308;8.914;2023-05-27T09:11:44;19.40;53.50
16032;DHT22;8120;48.308;8.914;2023-05-27T09:14:19;19.70;53.70
16032;DHT22;8120;48.308;8.914;2023-05-27T09:16:47;20.00;52.10
16032;DHT22;8120;48.308;8.914;2023-05-27T09:19:16;19.90;52.30
16032;DHT22;8120;48.308;8.914;2023-05-27T09:21:46;19.40;53.30
16032;DHT22;8120;48.308;8.914;2023-05-27T09:24:14;19.40;53.90
16032;DHT22;8120;48.308;8.914;2023-05-27T09:26:42;19.40;53.80
16032;DHT22;8120;48.308;8.914;2023-05-27T09:29:10;19.60;53.70
16032;DHT22;8120;48.308;8.914;2023-05-27T09:31:38;19.80;53.90
16032;DHT22;8120;48.308;8.914;2023-05-27T09:36:43;19.90;53.10
16032;DHT22;8120;48.308;8.914;2023-05-27T09:39:13;20.00;53.40
16032;DHT22;8120;48.308;8.914;2023-05-27T09:41:41;20.00;53.30
16032;DHT22;8120;48.308;8.914;2023-05-27T09:44:09;19.90;53.00
16032;DHT22;8120;48.308;8.914;2023-05-27T09:46:38;19.70;52.80
16032;DHT22;8120;48.308;8.914;2023-05-27T09:49:09;19.90;52.50
16032;DHT22;8120;48.308;8.914;2023-05-27T09:51:38;19.90;52.70
16032;DHT22;8120;48.308;8.914;2023-05-27T09:54:09;19.70;53.40
16032;DHT22;8120;48.308;8.914;2023-05-27T09:56:38;20.10;53.70
16032;DHT22;8120;48.308;8.914;2023-05-27T09:59:06;20.40;52.20
16032;DHT22;8120;48.308;8.914;2023-05-27T10:01:35;20.10;53.50
16032;DHT22;8120;48.308;8.914;2023-05-27T10:04:04;20.50;53.50
16032;DHT22;8120;48.308;8.914;2023-05-27T10:06:33;20.50;51.80
16032;DHT22;8120;48.308;8.914;2023-05-27T10:09:03;20.60;51.60
16032;DHT22;8120;48.308;8.914;2023-05-27T10:11:32;20.90;51.60
16032;DHT22;8120;48.308;8.914;2023-05-27T10:14:03;20.50;52.40
16032;DHT22;8120;48.308;8.914;2023-05-27T10:16:31;20.30;52.50
16032;DHT22;8120;48.308;8.914;2023-05-27T10:18:59;20.10;52.80
16032;DHT22;8120;48.308;8.914;2023-05-27T10:21:28;19.80;54.40
16032;DHT22;8120;48.308;8.914;2023-05-27T10:23:58;20.10;53.60
16032;DHT22;8120;48.308;8.914;2023-05-27T10:26:33;20.00;53.40
16032;DHT22;8120;48.308;8.914;2023-05-27T10:29:07;20.10;53.10
16032;DHT22;8120;48.308;8.914;2023-05-27T10:31:36;20.50;51.50
16032;DHT22;8120;48.308;8.914;2023-05-27T10:34:11;20.60;52.10
16032;DHT22;8120;48.308;8.914;2023-05-27T10:36:39;20.70;51.40
16032;DHT22;8120;48.308;8.914;2023-05-27T10:39:13;20.70;51.50
16032;DHT22;8120;48.308;8.914;2023-05-27T10:41:42;20.30;52.30
16032;DHT22;8120;48.308;8.914;2023-05-27T10:44:11;20.40;51.80
16032;DHT22;8120;48.308;8.914;2023-05-27T10:46:40;20.40;51.90
16032;DHT22;8120;48.308;8.914;2023-05-27T10:49:13;20.90;51.20
16032;DHT22;8120;48.308;8.914;2023-05-27T10:51:42;21.30;49.90
16032;DHT22;8120;48.308;8.914;2023-05-27T10:54:10;21.20;50.50
16032;DHT22;8120;48.308;8.914;2023-05-27T10:56:48;21.20;49.10
16032;DHT22;8120;48.308;8.914;2023-05-27T10:59:20;21.50;49.40
16032;DHT22;8120;48.308;8.914;2023-05-27T11:01:51;21.40;50.60
16032;DHT22;8120;48.308;8.914;2023-05-27T11:04:20;21.00;49.50
16032;DHT22;8120;48.308;8.914;2023-05-27T11:06:59;20.50;50.50
16032;DHT22;8120;48.308;8.914;2023-05-27T11:09:30;20.90;51.40
16032;DHT22;8120;48.308;8.914;2023-05-27T11:12:01;21.30;50.20
16032;DHT22;8120;48.308;8.914;2023-05-27T11:14:31;21.60;48.40
16032;DHT22;8120;48.308;8.914;2023-05-27T11:17:00;21.30;48.10
16032;DHT22;8120;48.308;8.914;2023-05-27T11:19:28;21.50;48.30
16032;DHT22;8120;48.308;8.914;2023-05-27T11:21:56;21.20;48.00
16032;DHT22;8120;48.308;8.914;2023-05-27T11:24:23;20.90;48.10
16032;DHT22;8120;48.308;8.914;2023-05-27T11:26:51;21.40;48.10
16032;DHT22;8120;48.308;8.914;2023-05-27T11:29:20;21.30;47.00
16032;DHT22;8120;48.308;8.914;2023-05-27T11:31:49;21.40;47.50
16032;DHT22;8120;48.308;8.914;2023-05-27T11:34:17;21.40;48.00
16032;DHT22;8120;48.308;8.914;2023-05-27T11:36:49;21.10;48.40
16032;DHT22;8120;48.308;8.914;2023-05-27T11:39:17;20.90;48.90
16032;DHT22;8120;48.308;8.914;2023-05-27T11:41:49;21.40;47.50
16032;DHT22;8120;48.308;8.914;2023-05-27T11:44:19;21.80;45.50
16032;DHT22;8120;48.308;8.914;2023-05-27T11:46:58;21.90;44.40
16032;DHT22;8120;48.308;8.914;2023-05-27T11:49:27;22.40;44.80
16032;DHT22;8120;48.308;8.914;2023-05-27T11:51:56;22.10;43.00
16032;DHT22;8120;48.308;8.914;2023-05-27T11:54:26;21.60;43.60
16032;DHT22;8120;48.308;8.914;2023-05-27T11:56:55;21.80;42.40
16032;DHT22;8120;48.308;8.914;2023-05-27T11:59:23;21.90;41.90
16032;DHT22;8120;48.308;8.914;2023-05-27T12:01:53;21.70;43.40
16032;DHT22;8120;48.308;8.914;2023-05-27T12:04:21;21.90;42.40
16032;DHT22;8120;48.308;8.914;2023-05-27T12:06:49;22.00;43.10
16032;DHT22;8120;48.308;8.914;2023-05-27T12:09:17;21.90;42.80
16032;DHT22;8120;48.308;8.914;2023-05-27T12:11:45;21.80;41.80
16032;DHT22;8120;48.308;8.914;2023-05-27T12:14:13;21.70;42.30
16032;DHT22;8120;48.308;8.914;2023-05-27T12:16:41;22.00;43.40
16032;DHT22;8120;48.308;8.914;2023-05-27T12:19:10;22.10;41.70
16032;DHT22;8120;48.308;8.914;2023-05-27T12:21:39;21.70;42.20
16032;DHT22;8120;48.308;8.914;2023-05-27T12:24:07;21.90;43.60
16032;DHT22;8120;48.308;8.914;2023-05-27T12:26:35;22.00;41.30
16032;DHT22;8120;48.308;8.914;2023-05-27T12:29:03;22.20;42.20
16032;DHT22;8120;48.308;8.914;2023-05-27T12:31:31;21.80;42.60
16032;DHT22;8120;48.308;8.914;2023-05-27T12:33:59;22.10;42.70
16032;DHT22;8120;48.308;8.914;2023-05-27T12:36:28;22.30;43.00
16032;DHT22;8120;48.308;8.914;2023-05-27T12:38:56;21.90;42.20
16032;DHT22;8120;48.308;8.914;2023-05-27T12:41:24;21.90;42.20
16032;DHT22;8120;48.308;8.914;2023-05-27T12:43:53;22.00;41.80
16032;DHT22;8120;48.308;8.914;2023-05-27T12:46:20;22.40;41.50
16032;DHT22;8120;48.308;8.914;2023-05-27T12:48:48;22.30;42.10
16032;DHT22;8120;48.308;8.914;2023-05-27T12:51:16;21.90;42.00
16032;DHT22;8120;48.308;8.914;2023-05-27T12:53:45;22.00;42.30
16032;DHT22;8120;48.308;8.914;2023-05-27T12:56:13;22.10;41.40
16032;DHT22;8120;48.308;8.914;2023-05-27T12:58:41;22.30;41.70
16032;DHT22;8120;48.308;8.914;2023-05-27T13:01:09;22.50;41.00
16032;DHT22;8120;48.308;8.914;2023-05-27T13:03:37;22.80;41.30
16032;DHT22;8120;48.308;8.914;2023-05-27T13:06:05;22.80;41.00
16032;DHT22;8120;48.308;8.914;2023-05-27T13:08:34;22.60;40.70
16032;DHT22;8120;48.308;8.914;2023-05-27T13:11:03;22.60;40.40
16032;DHT22;8120;48.308;8.914;2023-05-27T13:13:31;22.70;41.50
16032;DHT22;8120;48.308;8.914;2023-05-27T13:15:59;23.00;40.30
16032;DHT22;8120;48.308;8.914;2023-05-27T13:18:27;23.30;41.00
16032;DHT22;8120;48.308;8.914;2023-05-27T13:20:55;23.00;40.40
16032;DHT22;8120;48.308;8.914;2023-05-27T13:23:23;22.70;40.60
16032;DHT22;8120;48.308;8.914;2023-05-27T13:25:51;22.30;41.10
16032;DHT22;8120;48.308;8.914;2023-05-27T13:28:21;22.30;40.90
16032;DHT22;8120;48.308;8.914;2023-05-27T13:30:49;22.20;41.00
16032;DHT22;8120;48.308;8.914;2023-05-27T13:33:16;22.40;40.50
16032;DHT22;8120;48.308;8.914;2023-05-27T13:35:44;22.60;41.60
16032;DHT22;8120;48.308;8.914;2023-05-27T13:38:12;23.10;40.40
16032;DHT22;8120;48.308;8.914;2023-05-27T13:40:41;23.10;39.30
16032;DHT22;8120;48.308;8.914;2023-05-27T13:43:09;22.70;40.10
16032;DHT22;8120;48.308;8.914;2023-05-27T13:45:38;22.50;40.00
16032;DHT22;8120;48.308;8.914;2023-05-27T13:48:06;22.40;39.80
16032;DHT22;8120;48.308;8.914;2023-05-27T13:50:34;22.70;40.00
16032;DHT22;8120;48.308;8.914;2023-05-27T13:53:02;22.50;39.80
16032;DHT22;8120;48.308;8.914;2023-05-27T13:55:31;22.60;39.50
16032;DHT22;8120;48.308;8.914;2023-05-27T13:57:58;22.60;40.00
16032;DHT22;8120;48.308;8.914;2023-05-27T14:00:27;22.40;40.30
16032;DHT22;8120;48.308;8.914;2023-05-27T14:02:57;22.30;40.30
16032;DHT22;8120;48.308;8.914;2023-05-27T14:05:26;22.40;39.60
16032;DHT22;8120;48.308;8.914;2023-05-27T14:07:55;22.30;40.30
16032;DHT22;8120;48.308;8.914;2023-05-27T14:10:23;22.30;40.60
16032;DHT22;8120;48.308;8.914;2023-05-27T14:12:51;22.60;40.20
16032;DHT22;8120;48.308;8.914;2023-05-27T14:15:19;22.70;38.70
16032;DHT22;8120;48.308;8.914;2023-05-27T14:17:47;22.30;39.60
16032;DHT22;8120;48.308;8.914;2023-05-27T14:20:16;22.30;39.70
16032;DHT22;8120;48.308;8.914;2023-05-27T14:22:44;22.40;39.90
16032;DHT22;8120;48.308;8.914;2023-05-27T14:25:12;22.40;40.40
16032;DHT22;8120;48.308;8.914;2023-05-27T14:27:40;22.80;40.30
16032;DHT22;8120;48.308;8.914;2023-05-27T14:30:09;22.70;39.70
16032;DHT22;8120;48.308;8.914;2023-05-27T14:32:37;22.50;40.20
16032;DHT22;8120;48.308;8.914;2023-05-27T14:35:06;22.40;40.00
16032;DHT22;8120;48.308;8.914;2023-05-27T14:37:35;22.40;40.50
16032;DHT22;8120;48.308;8.914;2023-05-27T14:40:03;22.60;38.60
16032;DHT22;8120;48.308;8.914;2023-05-27T14:42:32;23.10;39.90
16032;DHT22;8120;48.308;8.914;2023-05-27T14:45:00;22.80;39.10
16032;DHT22;8120;48.308;8.914;2023-05-27T14:47:28;22.40;39.90
16032;DHT22;8120;48.308;8.914;2023-05-27T14:49:56;22.00;39.90
16032;DHT22;8120;48.308;8.914;2023-05-27T14:52:24;22.20;42.40
16032;DHT22;8120;48.308;8.914;2023-05-27T14:54:53;22.20;43.90
16032;DHT22;8120;48.308;8.914;2023-05-27T14:57:21;22.20;43.30
16032;DHT22;8120;48.308;8.914;2023-05-27T14:59:49;22.10;42.90
16032;DHT22;8120;48.308;8.914;2023-05-27T15:02:16;22.00;43.40
16032;DHT22;8120;48.308;8.914;2023-05-27T15:04:44;22.00;44.20
16032;DHT22;8120;48.308;8.914;2023-05-27T15:07:13;22.20;44.30
16032;DHT22;8120;48.308;8.914;2023-05-27T15:09:44;22.20;43.60
16032;DHT22;8120;48.308;8.914;2023-05-27T15:12:14;22.20;44.00
16032;DHT22;8120;48.308;8.914;2023-05-27T15:14:42;22.60;42.10
16032;DHT22;8120;48.308;8.914;2023-05-27T15:17:10;22.20;42.00
16032;DHT22;8120;48.308;8.914;2023-05-27T15:19:39;22.10;42.90
16032;DHT22;8120;48.308;8.914;2023-05-27T15:22:07;22.10;43.60
16032;DHT22;8120;48.308;8.914;2023-05-27T15:24:34;22.10;43.60
16032;DHT22;8120;48.308;8.914;2023-05-27T15:27:02;21.90;43.60
16032;DHT22;8120;48.308;8.914;2023-05-27T15:29:32;21.70;43.40
16032;DHT22;8120;48.308;8.914;2023-05-27T15:31:59;21.70;43.90
16032;DHT22;8120;48.308;8.914;2023-05-27T15:34:27;21.70;43.60
16032;DHT22;8120;48.308;8.914;2023-05-27T15:36:55;21.80;44.00
16032;DHT22;8120;48.308;8.914;2023-05-27T15:39:25;21.80;43.50
16032;DHT22;8120;48.308;8.914;2023-05-27T15:41:53;21.90;43.50
16032;DHT22;8120;48.308;8.914;2023-05-27T15:44:20;22.10;43.00
16032;DHT22;8120;48.308;8.914;2023-05-27T15:46:50;21.80;43.80
16032;DHT22;8120;48.308;8.914;2023-05-27T15:49:18;21.70;42.90
16032;DHT22;8120;48.308;8.914;2023-05-27T15:51:46;21.60;43.60
16032;DHT22;8120;48.308;8.914;2023-05-27T15:54:14;21.60;43.50
16032;DHT22;8120;48.308;8.914;2023-05-27T15:56:42;21.40;43.30
16032;DHT22;8120;48.308;8.914;2023-05-27T15:59:10;21.50;43.80
16032;DHT22;8120;48.308;8.914;2023-05-27T16:01:38;21.60;43.70